Sovereign — 9HUE9 — position and weather

sailwx.info

Track history (hours):
 
Tides and Currents Weather Stations Pressure Air Temp Water Temp Dewpoint Dewpoint Depression Visibility Wind Speed Wind Dir Waves Ship Positions

Sovereign

Last reported at 2014-Aug-28 14:34 UTC. Time now 2014-Aug-28 15:24 UTC.
Position N 44°06' E 009°50'.

Length 268 m; draft 7.8 m.

Type: Passenger vessel. MMSI: 249539000.

Date/timePositionNaut miles runAvg speedWind from/ knotsBaromVisibWave heightAir tempDewpointWater temp
2014-Aug-28 14:34N 44°06' E 009°50'0 0.0
2014-Aug-28 13:31N 44°06' E 009°50'0 0.0
2014-Aug-28 12:31N 44°06' E 009°50'0 0.0
2014-Aug-28 11:34N 44°06' E 009°50'0 0.0
2014-Aug-28 10:34N 44°06' E 009°50'0 0.0
2014-Aug-28 09:34N 44°06' E 009°50'0 0.0
2014-Aug-28 08:34N 44°06' E 009°50'0 0.0
2014-Aug-28 07:34N 44°06' E 009°50'0 0.0
2014-Aug-28 06:34N 44°06' E 009°50'0 0.1
2014-Aug-28 05:33N 44°06' E 009°50'8 7.7
2014-Aug-28 04:33N 43°60' E 009°56'1616.4
2014-Aug-28 03:33N 43°44' E 009°49'1717.1
2014-Aug-28 02:33N 43°27' E 009°44'1716.9
2014-Aug-28 01:33N 43°12' E 009°53'1616.2
2014-Aug-28 00:33N 42°56' E 009°59'199 7.3
2014-Aug-26 21:10N 40°52' E 013°29'915.2
2014-Aug-26 20:33N 40°45' E 013°37'1414.4
2014-Aug-26 19:34N 40°38' E 013°53'221 8.0
2014-Aug-25 16:07N 37°36' E 011°11'1017.5
2014-Aug-25 15:33N 37°29' E 011°03'1717.2
2014-Aug-25 14:33N 37°15' E 010°50'1717.2
2014-Aug-25 13:33N 37°02' E 010°37'131 6.1
2014-Aug-24 16:06N 38°20' E 008°23'25314.2
2014-Aug-23 22:15N 40°32' E 003°45'1314.9
2014-Aug-23 21:23N 40°39' E 003°31'1215.0
2014-Aug-23 20:33N 40°45' E 003°17'1515.0
2014-Aug-23 19:33N 40°53' E 002°60'39 2.4
2014-Aug-23 03:33N 41°32' E 002°53'1615.8
2014-Aug-23 02:33N 41°39' E 003°11'1716.7
2014-Aug-23 01:33N 41°47' E 003°31'1716.8
2014-Aug-23 00:34N 41°55' E 003°51'1717.1
2014-Aug-22 23:33N 42°03' E 004°12'1716.9
2014-Aug-22 22:34N 42°10' E 004°32'3316.3
2014-Aug-22 20:33N 42°25' E 005°11'1615.9
2014-Aug-22 19:33N 42°33' E 005°30'1616.5
2014-Aug-22 18:33N 42°41' E 005°49'1716.8
2014-Aug-22 17:33N 42°47' E 006°10'1717.0
2014-Aug-22 16:33N 42°56' E 006°30'1717.4
2014-Aug-22 15:33N 43°09' E 006°46'1716.9
2014-Aug-22 14:33N 43°22' E 007°01'1716.8
2014-Aug-22 13:33N 43°36' E 007°14'7 6.1
2014-Aug-22 12:26N 43°42' E 007°19'0 0.0
2014-Aug-22 10:32N 43°42' E 007°19'0 0.0
2014-Aug-22 08:32N 43°42' E 007°19'0 0.0
2014-Aug-22 07:32N 43°42' E 007°19'0 0.1
2014-Aug-22 06:32N 43°42' E 007°19'0 0.0
2014-Aug-22 05:14N 43°42' E 007°19'0 0.1
2014-Aug-22 04:34N 43°42' E 007°19'7 7.1
2014-Aug-22 03:33N 43°39' E 007°28'3511.7
2014-Aug-22 00:33N 43°42' E 008°16'1312.7
2014-Aug-21 23:33N 43°46' E 008°33'1212.3
2014-Aug-21 22:34N 43°50' E 008°49'1212.4
2014-Aug-21 21:34N 43°52' E 009°06'1212.1
2014-Aug-21 20:34N 43°55' E 009°23'1212.2
2014-Aug-21 19:33N 43°58' E 009°39'1010.2
2014-Aug-21 18:34N 44°02' E 009°52'4 4.1
2014-Aug-21 17:30N 44°06' E 009°50'0 0.0
2014-Aug-21 16:33N 44°06' E 009°50'0 0.0
2014-Aug-21 15:33N 44°06' E 009°50'0 0.0
2014-Aug-21 14:33N 44°06' E 009°50'0 0.0
2014-Aug-21 13:33N 44°06' E 009°50'0 0.0
2014-Aug-21 12:33N 44°06' E 009°50'0 0.0
2014-Aug-21 11:33N 44°06' E 009°50'0 0.0
2014-Aug-21 10:33N 44°06' E 009°50'0 0.0
2014-Aug-21 09:33N 44°06' E 009°50'0 0.0
2014-Aug-21 08:33N 44°06' E 009°50'0 0.0
2014-Aug-21 07:30N 44°06' E 009°50'0 0.0
2014-Aug-21 06:33N 44°06' E 009°50'0 0.0
2014-Aug-21 05:33N 44°06' E 009°50'7 6.6
2014-Aug-21 04:33N 44°01' E 009°55'1716.9
2014-Aug-21 03:33N 43°45' E 009°50'1817.7
2014-Aug-21 02:33N 43°27' E 009°45'1717.0
2014-Aug-21 01:33N 43°12' E 009°54'1615.4
2014-Aug-21 00:33N 42°56' E 009°55'199 7.3
2014-Aug-19 21:17N 40°54' E 013°26'1114.9
2014-Aug-19 20:33N 40°47' E 013°37'1414.0
2014-Aug-19 19:33N 40°37' E 013°50'23 7.6
2014-Aug-19 16:31N 40°50' E 014°15'0 0.0
2014-Aug-19 15:10N 40°50' E 014°15'0 0.0
2014-Aug-19 14:10N 40°50' E 014°15'0 0.0
2014-Aug-19 13:28N 40°50' E 014°15'0 0.0
2014-Aug-19 12:28N 40°50' E 014°15'64 6.3
2014-Aug-19 02:20N 39°58' E 013°27'8317.2
2014-Aug-18 21:32N 38°52' E 012°22'9317.3
2014-Aug-18 16:09N 37°38' E 011°11'1017.5
2014-Aug-18 15:33N 37°30' E 011°02'  
Track history (hours):
 
Tides and Currents Weather Stations Pressure Air Temp Water Temp Dewpoint Dewpoint Depression Visibility Wind Speed Wind Dir Waves Ship Positions

Sovereign

Last reported at 2014-Aug-28 14:34 UTC. Time now 2014-Aug-28 15:24 UTC.
Position N 44°06' E 009°50'.

Length 268 m; draft 7.8 m.

Type: Passenger vessel. MMSI: 249539000.

Date/timePositionNaut miles runAvg speedWind from/ knotsBaromVisibWave heightAir tempDewpointWater temp
2014-Aug-28 14:34N 44°06' E 009°50'0 0.0
2014-Aug-28 13:31N 44°06' E 009°50'0 0.0
2014-Aug-28 12:31N 44°06' E 009°50'0 0.0
2014-Aug-28 11:34N 44°06' E 009°50'0 0.0
2014-Aug-28 10:34N 44°06' E 009°50'0 0.0
2014-Aug-28 09:34N 44°06' E 009°50'0 0.0
2014-Aug-28 08:34N 44°06' E 009°50'0 0.0
2014-Aug-28 07:34N 44°06' E 009°50'0 0.0
2014-Aug-28 06:34N 44°06' E 009°50'0 0.1
2014-Aug-28 05:33N 44°06' E 009°50'8 7.7
2014-Aug-28 04:33N 43°60' E 009°56'1616.4
2014-Aug-28 03:33N 43°44' E 009°49'1717.1
2014-Aug-28 02:33N 43°27' E 009°44'1716.9
2014-Aug-28 01:33N 43°12' E 009°53'1616.2
2014-Aug-28 00:33N 42°56' E 009°59'199 7.3
2014-Aug-26 21:10N 40°52' E 013°29'915.2
2014-Aug-26 20:33N 40°45' E 013°37'1414.4
2014-Aug-26 19:34N 40°38' E 013°53'221 8.0
2014-Aug-25 16:07N 37°36' E 011°11'1017.5
2014-Aug-25 15:33N 37°29' E 011°03'1717.2
2014-Aug-25 14:33N 37°15' E 010°50'1717.2
2014-Aug-25 13:33N 37°02' E 010°37'131 6.1
2014-Aug-24 16:06N 38°20' E 008°23'25314.2
2014-Aug-23 22:15N 40°32' E 003°45'1314.9
2014-Aug-23 21:23N 40°39' E 003°31'1215.0
2014-Aug-23 20:33N 40°45' E 003°17'1515.0
2014-Aug-23 19:33N 40°53' E 002°60'39 2.4
2014-Aug-23 03:33N 41°32' E 002°53'1615.8
2014-Aug-23 02:33N 41°39' E 003°11'1716.7
2014-Aug-23 01:33N 41°47' E 003°31'1716.8
2014-Aug-23 00:34N 41°55' E 003°51'1717.1
2014-Aug-22 23:33N 42°03' E 004°12'1716.9
2014-Aug-22 22:34N 42°10' E 004°32'3316.3
2014-Aug-22 20:33N 42°25' E 005°11'1615.9
2014-Aug-22 19:33N 42°33' E 005°30'1616.5
2014-Aug-22 18:33N 42°41' E 005°49'1716.8
2014-Aug-22 17:33N 42°47' E 006°10'1717.0
2014-Aug-22 16:33N 42°56' E 006°30'1717.4
2014-Aug-22 15:33N 43°09' E 006°46'1716.9
2014-Aug-22 14:33N 43°22' E 007°01'1716.8
2014-Aug-22 13:33N 43°36' E 007°14'7 6.1
2014-Aug-22 12:26N 43°42' E 007°19'0 0.0
2014-Aug-22 10:32N 43°42' E 007°19'0 0.0
2014-Aug-22 08:32N 43°42' E 007°19'0 0.0
2014-Aug-22 07:32N 43°42' E 007°19'0 0.1
2014-Aug-22 06:32N 43°42' E 007°19'0 0.0
2014-Aug-22 05:14N 43°42' E 007°19'0 0.1
2014-Aug-22 04:34N 43°42' E 007°19'7 7.1
2014-Aug-22 03:33N 43°39' E 007°28'3511.7
2014-Aug-22 00:33N 43°42' E 008°16'1312.7
2014-Aug-21 23:33N 43°46' E 008°33'1212.3
2014-Aug-21 22:34N 43°50' E 008°49'1212.4
2014-Aug-21 21:34N 43°52' E 009°06'1212.1
2014-Aug-21 20:34N 43°55' E 009°23'1212.2
2014-Aug-21 19:33N 43°58' E 009°39'1010.2
2014-Aug-21 18:34N 44°02' E 009°52'4 4.1
2014-Aug-21 17:30N 44°06' E 009°50'0 0.0
2014-Aug-21 16:33N 44°06' E 009°50'0 0.0
2014-Aug-21 15:33N 44°06' E 009°50'0 0.0
2014-Aug-21 14:33N 44°06' E 009°50'0 0.0
2014-Aug-21 13:33N 44°06' E 009°50'0 0.0
2014-Aug-21 12:33N 44°06' E 009°50'0 0.0
2014-Aug-21 11:33N 44°06' E 009°50'0 0.0
2014-Aug-21 10:33N 44°06' E 009°50'0 0.0
2014-Aug-21 09:33N 44°06' E 009°50'0 0.0
2014-Aug-21 08:33N 44°06' E 009°50'0 0.0
2014-Aug-21 07:30N 44°06' E 009°50'0 0.0
2014-Aug-21 06:33N 44°06' E 009°50'0 0.0
2014-Aug-21 05:33N 44°06' E 009°50'7 6.6
2014-Aug-21 04:33N 44°01' E 009°55'1716.9
2014-Aug-21 03:33N 43°45' E 009°50'1817.7
2014-Aug-21 02:33N 43°27' E 009°45'1717.0
2014-Aug-21 01:33N 43°12' E 009°54'1615.4
2014-Aug-21 00:33N 42°56' E 009°55'199 7.3
2014-Aug-19 21:17N 40°54' E 013°26'1114.9
2014-Aug-19 20:33N 40°47' E 013°37'1414.0
2014-Aug-19 19:33N 40°37' E 013°50'23 7.6
2014-Aug-19 16:31N 40°50' E 014°15'0 0.0
2014-Aug-19 15:10N 40°50' E 014°15'0 0.0
2014-Aug-19 14:10N 40°50' E 014°15'0 0.0
2014-Aug-19 13:28N 40°50' E 014°15'0 0.0
2014-Aug-19 12:28N 40°50' E 014°15'64 6.3
2014-Aug-19 02:20N 39°58' E 013°27'8317.2
2014-Aug-18 21:32N 38°52' E 012°22'9317.3
2014-Aug-18 16:09N 37°38' E 011°11'1017.5
2014-Aug-18 15:33N 37°30' E 011°02'  

Dump ship's entire track history